• Join FlightAware (Why Join?)
  • Login
  • US Flag 
12:19AM EDT


 

Airport Tracker/Info


-or-


 

Live Flight TrackerFlight Track Log ✈ UAL1187 ✈ 11-May-2013 ✈ KORD - MROC / SJO

Flight Track Log - Related Links

Times and Time Zones

All times are in EDT time to prevent confusion due to time zone crossing. See the UAL1187 flight status page for this flight to view local times or setup timezone preferences in your user account.

Time Position Orientation Groundspeed Altitude Reporting Facility
EDT Latitude Longitude Course Direction KTS MPH feet Rate Location/Type
09:25AM 41.9333 -87.9167 180° South 184 212 2,300  Level Chicago TRACON
09:27AM 41.6100 -87.8469 166° South  Level Estimated
09:27AM 41.8014 -87.8664 164° South 286 329 7,300  Level Chicago Center
09:28AM 41.4861 -87.8271 167° South  Level Estimated
09:28AM 41.7222 -87.8361 164° South 296 341 11,000  Level Chicago Center
09:29AM 41.3622 -87.8075 180° South  Level Estimated
09:29AM 41.6344 -87.8039 165° South 335 386 13,100  Level Chicago Center
09:30AM 41.2383 -87.7878 180° South  Level Estimated
09:30AM 41.5281 -87.7656 165° South 362 417 16,000  Level Chicago Center
09:31AM 41.4358 -87.7311 164° South 366 421 19,200 2,580 Climbing Chicago Center
09:32AM 41.3297 -87.7261 178° South 378 435 21,400 2,160 Climbing Chicago Center
09:33AM 41.2203 -87.7258 180° South 387 445 23,700 1,980 Climbing Chicago Center
09:34AM 41.1078 -87.7133 175° South 401 461 25,500 1,740 Climbing Chicago Center
09:35AM 40.9897 -87.6978 174° South 420 483 27,300 1,740 Climbing Chicago Center
09:36AM 40.8711 -87.6792 173° South 429 494 29,100 1,560 Climbing Chicago Center
09:37AM 40.7264 -87.6608 175° South 436 502 30,600 1,380 Climbing Chicago Center
09:38AM 40.6017 -87.6436 174° South 448 516 32,000 1,320 Climbing Chicago Center
09:39AM 40.4772 -87.6261 174° South 452 520 33,400 1,200 Climbing Chicago Center
09:40AM 40.3528 -87.6097 174° South 451 519 34,500 1,440 Climbing Chicago Center
09:41AM 40.2353 -87.5492 159° South 469 540 36,400 1,260 Climbing Chicago Center
09:42AM 40.1261 -87.4853 156° South 454 522 37,200 780 Climbing Chicago Center
09:43AM 39.9867 -87.3986 155° Southeast 456 525 38,100 780 Climbing Indianapolis Center
09:44AM 39.8733 -87.3231 153° Southeast 458 527 38,900 420 Climbing Indianapolis Center
09:45AM 39.7628 -87.2456 152° Southeast 457 526 39,000  Climbing Indianapolis Center
09:46AM 39.6544 -87.1614 149° Southeast 456 525 39,000  Level Indianapolis Center
09:47AM 39.5542 -87.0536 140° Southeast 472 543 39,000  Level Indianapolis Center
09:48AM 39.4389 -86.9925 158° South 452 520 39,000  Level Indianapolis Center
09:49AM 39.2992 -86.9300 161° South 447 514 39,000  Level Indianapolis Center
09:50AM 39.1825 -86.8772 161° South 448 516 39,000  Level Indianapolis Center
09:51AM 39.0617 -86.8222 161° South 448 516 39,000  Level Indianapolis Center
09:52AM 38.9425 -86.7697 161° South 450 518 39,000  Level Indianapolis Center
09:53AM 38.8228 -86.7150 160° South 452 520 39,000  Level Indianapolis Center
09:54AM 38.7033 -86.6606 160° South 452 520 39,000  Level Indianapolis Center
09:55AM 38.5825 -86.6078 161° South 452 520 39,000  Level Indianapolis Center
09:56AM 38.4622 -86.5536 161° South 452 520 39,000  Level Indianapolis Center
09:57AM 38.3433 -86.5000 161° South 448 516 39,000  Level Indianapolis Center
09:58AM 38.2233 -86.4481 161° South 448 516 39,000  Level Indianapolis Center
10:00AM 38.1042 -86.3961 161° South 449 517 39,000  Level Indianapolis Center
10:01AM 37.9603 -86.3325 161° South 453 521 39,000  Level Indianapolis Center
10:02AM 37.8397 -86.2794 161° South 454 522 39,000  Level Indianapolis Center
10:03AM 37.7333 -86.2361 162° South 449 517 39,000  Level Indianapolis Center
10:04AM 37.6000 -86.1769 161° South 454 522 39,000  Level Indianapolis Center
10:05AM 37.4742 -86.1222 161° South 448 516 39,000  Level Indianapolis Center
10:06AM 37.3542 -86.0719 162° South 448 516 39,000  Level Indianapolis Center
10:07AM 37.2353 -86.0211 161° South 445 512 39,000  Level Indianapolis Center
10:08AM 37.1150 -85.9692 161° South 449 517 39,000  Level Indianapolis Center
10:09AM 37.0131 -85.9247 161° South 448 516 39,000  Level Memphis Center
10:10AM 36.8967 -85.8742 161° South 448 516 39,000  Level Memphis Center
10:11AM 36.7803 -85.8261 162° South 448 516 39,000  Level Memphis Center
10:12AM 36.6469 -85.7717 162° South 448 516 39,000  Level Memphis Center
10:13AM 36.5306 -85.7214 161° South 448 516 39,000  Level Memphis Center
10:14AM 36.4119 -85.6742 162° South 448 516 39,000  Level Memphis Center
10:15AM 36.2978 -85.6267 161° South 448 516 39,000  Level Memphis Center
10:17AM 35.9994 -85.5017 161° South 448 516 39,000  Level Atlanta Center
10:18AM 35.8853 -85.4561 162° South 442 509 39,000  Level Atlanta Center
10:19AM 35.7692 -85.4056 161° South 442 509 39,000  Level Atlanta Center
10:20AM 35.6528 -85.3600 162° South 442 509 39,000  Level Atlanta Center
10:21AM 35.5386 -85.3122 161° South 437 503 39,000  Level Atlanta Center
10:22AM 35.4222 -85.2647 162° South 442 509 39,000  Level Atlanta Center
10:23AM 35.3036 -85.2144 161° South 442 509 39,000  Level Atlanta Center
10:24AM 35.1853 -85.1672 162° South 442 509 39,000  Level Atlanta Center
10:25AM 35.0667 -85.1197 162° South 442 509 39,000  Level Atlanta Center
10:26AM 34.9483 -85.0725 162° South 442 509 39,000  Level Atlanta Center
10:27AM 34.8297 -85.0256 162° South 442 509 39,000  Level Atlanta Center
10:28AM 34.7089 -84.9761 161° South 442 509 39,000  Level Atlanta Center
10:29AM 34.5822 -84.9244 161° South 442 509 39,000  Level Atlanta Center
10:30AM 34.4614 -84.8753 161° South 442 509 39,000  Level Atlanta Center
10:31AM 34.3428 -84.8314 163° South 442 509 39,000  Level Atlanta Center
10:32AM 34.2261 -84.7850 162° South 442 509 39,000  Level Atlanta Center
10:33AM 34.1158 -84.7414 162° South 449 517 39,000  Level Atlanta Center
10:34AM 33.9992 -84.6953 162° South 455 524 39,000  Level Atlanta Center
10:35AM 33.8825 -84.6519 163° South 455 524 39,000  Level Atlanta Center
10:36AM 33.7639 -84.6011 160° South 455 524 39,000  Level Atlanta Center
10:37AM 33.6469 -84.5628 165° South 450 518 39,000  Level Atlanta Center
10:38AM 33.5158 -84.5072 161° South 450 518 39,000  Level Atlanta Center
10:39AM 33.4094 -84.4669 162° South 450 518 39,000  Level Atlanta Center
10:40AM 33.2886 -84.4189 162° South 450 518 39,000  Level Atlanta Center
10:41AM 33.1697 -84.3739 162° South 450 518 39,100  Climbing Atlanta Center
10:42AM 33.0444 -84.3239 162° South 466 536 39,000 -60 Descending Atlanta Center
10:43AM 32.9236 -84.2764 162° South 461 531 39,000  Level Atlanta Center
10:44AM 32.7983 -84.2317 163° South 461 531 39,000  Level Atlanta Center
10:45AM 32.6794 -84.1869 162° South 461 531 39,000  Level Atlanta Center
10:46AM 32.5564 -84.1375 161° South 461 531 39,000  Level Atlanta Center
10:48AM 32.3117 -84.0431 162° South 459 528 39,000  Level Jacksonville Center
10:49AM 32.1889 -83.9972 162° South 464 534 39,000  Level Jacksonville Center
10:50AM 32.0619 -83.9492 162° South 464 534 39,000  Level Jacksonville Center
10:51AM 31.9369 -83.9011 162° South 469 540 39,000  Level Jacksonville Center
10:52AM 31.8247 -83.8561 161° South 469 540 39,000  Level Jacksonville Center
10:53AM 31.7019 -83.8083 162° South 469 540 39,000  Level Jacksonville Center
10:54AM 31.5683 -83.7681 166° South 475 547 39,000  Level Jacksonville Center
10:55AM 31.4436 -83.7206 162° South 481 554 39,000  Level Jacksonville Center
10:56AM 31.3164 -83.6756 163° South 476 548 39,000  Level Jacksonville Center
10:57AM 31.1914 -83.6283 162° South 476 548 39,000  Level Jacksonville Center
10:58AM 31.0644 -83.5839 163° South 476 548 39,000  Level Jacksonville Center
10:59AM 30.9372 -83.5369 162° South 476 548 39,000  Level Jacksonville Center
11:00AM 30.8142 -83.4900 162° South 476 548 39,000 -60 Level Jacksonville Center
11:01AM 30.6869 -83.4481 164° South 476 548 38,900  Descending Jacksonville Center
11:02AM 30.5600 -83.4039 163° South 481 554 39,000  Climbing Jacksonville Center
11:03AM 30.4328 -83.3575 163° South 481 554 39,000  Level Jacksonville Center
11:04AM 30.3014 -83.3111 163° South 481 554 39,000 -60 Level Jacksonville Center
11:05AM 30.1742 -83.2675 163° South 481 554 38,900  Descending Jacksonville Center
11:06AM 30.0428 -83.2214 163° South 486 559 39,000  Climbing Jacksonville Center
11:07AM 29.8989 -83.1728 164° South 491 565 38,900 -60 Descending Jacksonville Center
11:08AM 29.7736 -83.1269 162° South 504 580 38,900  Level Jacksonville Center
11:09AM 29.6422 -83.0836 164° South 504 580 39,000  Climbing Jacksonville Center
11:10AM 29.5128 -83.0381 163° South 493 567 39,000 -60 Level Jacksonville Center
11:11AM 29.3647 -82.9856 163° South 500 575 38,900  Descending Jacksonville Center
11:12AM 29.2414 -82.9403 162° South 484 557 39,000  Climbing Jacksonville Center
11:13AM 29.1142 -82.8997 164° South 478 550 39,000 -60 Level Jacksonville Center
11:14AM 28.9908 -82.8544 162° South 478 550 38,900 -60 Descending Jacksonville Center
11:15AM 28.8678 -82.8119 163° South 473 544 38,900  Level Jacksonville Center
11:16AM 28.7425 -82.7694 163° South 473 544 39,000  Climbing Jacksonville Center
11:17AM 28.6236 -82.7294 164° South 468 539 39,000 -60 Level Jacksonville Center
11:18AM 28.4961 -82.6872 164° South 463 533 38,900 -60 Descending Jacksonville Center
11:20AM 28.2731 -82.6078 163° South 471 542 38,900  Level Miami Center
11:21AM 28.1433 -82.5681 165° South 471 542 39,000  Climbing Miami Center
11:22AM 28.0219 -82.5267 163° South 471 542 39,000  Level Miami Center
11:23AM 27.9025 -82.4856 163° South 465 535 39,000  Level Miami Center
11:24AM 27.7769 -82.4442 164° South 465 535 39,000  Level Miami Center
11:25AM 27.6533 -82.4031 164° South 473 544 39,000  Level Miami Center
11:26AM 27.5153 -82.3567 163° South 473 544 39,000  Level Miami Center
11:27AM 27.3875 -82.3131 163° South 473 544 39,000  Level Miami Center
11:28AM 27.2617 -82.2722 164° South 473 544 39,000  Level Miami Center
11:29AM 27.1506 -82.2319 162° South 473 544 39,000  Level Miami Center
11:30AM 27.0247 -82.1933 165° South 473 544 39,000  Level Miami Center
11:31AM 26.8867 -82.1475 164° South 473 544 39,000  Level Miami Center
11:32AM 26.7606 -82.1069 164° South 473 544 39,000  Level Miami Center
11:33AM 26.6347 -82.0689 165° South 468 539 39,000  Level Miami Center
11:34AM 26.5047 -82.0236 163° South 473 544 39,000 -60 Level Miami Center
11:35AM 26.3789 -81.9833 164° South 473 544 38,900  Descending Miami Center
11:36AM 26.2531 -81.9408 163° South 468 539 39,000  Climbing Miami Center
11:37AM 26.1333 -81.8989 163° South 468 539 38,900 -60 Descending Miami Center
11:38AM 26.0033 -81.8586 164° South 470 541 38,900  Level Miami Center
11:39AM 25.8772 -81.8164 163° South 470 541 39,000  Climbing Miami Center
11:40AM 25.7472 -81.7742 164° South 476 548 39,000  Level Miami Center
11:41AM 25.6356 -81.7397 164° South 470 541 39,000  Level Miami Center
11:42AM 25.5075 -81.6978 164° South 470 541 39,000  Level Miami Center
11:43AM 25.3669 -81.6531 164° South 475 547 39,000 -60 Level Miami Center
11:44AM 25.2389 -81.6114 164° South 475 547 38,900  Descending Miami Center
11:45AM 25.1064 -81.5717 165° South 475 547 39,000  Climbing Miami Center
11:46AM 24.9803 -81.5325 164° South 475 547 39,000  Level Miami Center
11:47AM 24.8542 -81.4911 163° South 475 547 39,000  Level Miami Center
11:48AM 24.7261 -81.4497 164° South 475 547 39,000  Level Miami Center
11:49AM 24.5981 -81.4061 163° South 475 547 39,000  Level Miami Center
11:50AM 24.4633 -81.3647 164° South 482 555 39,000  Level Miami Center
11:51AM 24.3353 -81.3236 164° South 487 560 39,000  Level Miami Center
11:52AM 24.2050 -81.2825 164° South 487 560 39,000 -60 Level Miami Center
11:53AM 24.0764 -81.2439 165° South 487 560 38,900 -60 Descending Miami Center
11:54AM 23.9497 -81.2236 172° South 481 554 38,900  Level Miami Center
11:56AM 23.7771 -81.2658 193° South  Level FlightAware Approximate
12:03PM 22.9446 -81.4731 196° South  Level FlightAware Approximate
12:04PM 22.8275 -81.5106 196° South  Level FlightAware Approximate
12:05PM 22.7105 -81.5480 196° South  Level FlightAware Approximate
12:06PM 22.5935 -81.5854 197° South  Level FlightAware Approximate
12:07PM 22.4765 -81.6229 197° South  Level FlightAware Approximate
12:08PM 22.3595 -81.6604 196° South  Level FlightAware Approximate
12:09PM 22.2425 -81.6978 196° South  Level FlightAware Approximate
12:10PM 22.1255 -81.7352 197° South  Level FlightAware Approximate
12:11PM 22.0085 -81.7727 197° South  Level FlightAware Approximate
12:12PM 21.8915 -81.8101 197° South  Level FlightAware Approximate
12:13PM 21.7745 -81.8475 197° South  Level FlightAware Approximate
12:14PM 21.6595 -81.8913 200° South  Level FlightAware Approximate
12:15PM 21.5445 -81.9351 197° South  Level FlightAware Approximate
12:16PM 21.4277 -81.9731 197° South  Level FlightAware Approximate
12:17PM 21.3109 -82.0109 197° South  Level FlightAware Approximate
12:18PM 21.1941 -82.0488 197° South  Level FlightAware Approximate
12:19PM 21.0773 -82.0865 197° South  Level FlightAware Approximate
12:20PM 20.9604 -82.1242 197° South  Level FlightAware Approximate
12:21PM 20.8436 -82.1618 197° South  Level FlightAware Approximate
12:22PM 20.7268 -82.1994 197° South  Level FlightAware Approximate
12:23PM 20.6099 -82.2370 197° South  Level FlightAware Approximate
12:24PM 20.4930 -82.2744 197° South  Level FlightAware Approximate
12:25PM 20.3762 -82.3118 197° South  Level FlightAware Approximate
12:26PM 20.2593 -82.3492 197° South  Level FlightAware Approximate
12:27PM 20.1424 -82.3865 197° South  Level FlightAware Approximate
12:28PM 20.0232 -82.4098 192° South  Level FlightAware Approximate
12:29PM 19.9039 -82.4368 192° South  Level FlightAware Approximate
12:30PM 19.7845 -82.4638 192° South  Level FlightAware Approximate
12:31PM 19.6652 -82.4907 192° South  Level FlightAware Approximate
12:32PM 19.5458 -82.5176 192° South  Level FlightAware Approximate
12:33PM 19.4265 -82.5449 192° South  Level FlightAware Approximate
12:34PM 19.3072 -82.5721 192° South  Level FlightAware Approximate
12:35PM 19.1879 -82.5992 192° South  Level FlightAware Approximate
12:36PM 19.0686 -82.6263 192° South  Level FlightAware Approximate
12:37PM 18.9493 -82.6534 192° South  Level FlightAware Approximate
12:38PM 18.8300 -82.6804 192° South  Level FlightAware Approximate
12:39PM 18.7107 -82.7074 192° South  Level FlightAware Approximate
12:40PM 18.5914 -82.7344 192° South  Level FlightAware Approximate
12:41PM 18.4721 -82.7613 192° South  Level FlightAware Approximate
12:42PM 18.3528 -82.7882 192° South  Level FlightAware Approximate
12:43PM 18.2335 -82.8150 192° South  Level FlightAware Approximate
12:44PM 18.1141 -82.8419 192° South  Level FlightAware Approximate
12:45PM 17.9948 -82.8686 192° South  Level FlightAware Approximate
12:46PM 17.8755 -82.8954 192° South  Level FlightAware Approximate
12:47PM 17.7561 -82.9221 192° South  Level FlightAware Approximate
12:48PM 17.6368 -82.9487 192° South  Level FlightAware Approximate
12:49PM 17.5174 -82.9754 192° South  Level FlightAware Approximate
12:50PM 17.3981 -83.0020 192° South  Level FlightAware Approximate
12:51PM 17.2787 -83.0285 192° South  Level FlightAware Approximate
12:52PM 17.1594 -83.0551 192° South  Level FlightAware Approximate
12:53PM 17.0400 -83.0816 192° South  Level FlightAware Approximate
12:54PM 16.9207 -83.1080 192° South  Level FlightAware Approximate
12:55PM 16.8013 -83.1344 192° South  Level FlightAware Approximate
12:56PM 16.6819 -83.1608 192° South  Level FlightAware Approximate
12:57PM 16.5625 -83.1872 192° South  Level FlightAware Approximate
12:58PM 16.4432 -83.2135 192° South  Level FlightAware Approximate
12:59PM 16.3238 -83.2398 192° South  Level FlightAware Approximate
01:00PM 16.2044 -83.2661 192° South  Level FlightAware Approximate
01:01PM 16.0850 -83.2923 192° South  Level FlightAware Approximate
01:02PM 15.9653 -83.3169 191° South  Level FlightAware Approximate
01:03PM 15.8455 -83.3409 191° South  Level FlightAware Approximate
01:04PM 15.7257 -83.3649 191° South  Level FlightAware Approximate
01:05PM 15.6059 -83.3888 191° South  Level FlightAware Approximate
01:06PM 15.4865 -83.4126 191° South  Level FlightAware Approximate
01:07PM 15.3671 -83.4363 191° South  Level FlightAware Approximate
01:08PM 15.2477 -83.4601 191° South  Level FlightAware Approximate
01:09PM 15.1283 -83.4838 191° South  Level FlightAware Approximate
01:10PM 15.0089 -83.5075 191° South  Level FlightAware Approximate
01:11PM 14.8895 -83.5311 191° South  Level FlightAware Approximate
01:12PM 14.7701 -83.5548 191° South  Level FlightAware Approximate
01:13PM 14.6507 -83.5784 191° South  Level FlightAware Approximate
01:14PM 14.5312 -83.6020 191° South  Level FlightAware Approximate
01:15PM 14.4118 -83.6255 191° South  Level FlightAware Approximate
01:16PM 14.2924 -83.6490 191° South  Level FlightAware Approximate
01:17PM 14.1730 -83.6725 191° South  Level FlightAware Approximate
01:18PM 14.0536 -83.6960 191° South  Level FlightAware Approximate
01:19PM 13.9342 -83.7198 191° South  Level FlightAware Approximate
01:20PM 13.8151 -83.7448 192° South  Level FlightAware Approximate
01:21PM 13.6963 -83.7713 192° South  Level FlightAware Approximate
01:22PM 13.5775 -83.7978 192° South  Level FlightAware Approximate
01:23PM 13.4583 -83.8244 192° South  Level FlightAware Approximate
01:24PM 13.3390 -83.8509 192° South  Level FlightAware Approximate
01:25PM 13.2197 -83.8774 192° South  Level FlightAware Approximate
01:26PM 13.1005 -83.9039 192° South  Level FlightAware Approximate
01:27PM 12.9812 -83.9304 192° South  Level FlightAware Approximate
01:28PM 12.8619 -83.9568 192° South  Level FlightAware Approximate
01:29PM 12.7427 -83.9832 192° South  Level FlightAware Approximate
01:30PM 12.6226 -84.0023 192° South  Level FlightAware Approximate
01:31PM 12.5031 -84.0274 192° South  Level FlightAware Approximate
01:32PM 12.3836 -84.0526 192° South  Level FlightAware Approximate
01:33PM 12.2642 -84.0783 192° South  Level FlightAware Approximate
01:34PM 12.1450 -84.1049 192° South  Level FlightAware Approximate
01:35PM 12.0257 -84.1314 192° South  Level FlightAware Approximate
01:36PM 11.9065 -84.1578 192° South  Level FlightAware Approximate
01:37PM 11.7877 -84.1861 192° South  Level FlightAware Approximate
01:38PM 11.6684 -84.2126 192° South  Level FlightAware Approximate
01:39PM 11.5475 -84.2281 186° South  Level FlightAware Approximate
01:40PM 11.4276 -84.2504 193° South  Level FlightAware Approximate
01:41PM 11.3087 -84.2784 193° South  Level FlightAware Approximate
01:42PM 11.1897 -84.3057 192° South  Level FlightAware Approximate
01:43PM 11.0702 -84.3308 192° South  Level FlightAware Approximate
01:44PM 10.9507 -84.3560 192° South  Level FlightAware Approximate
01:45PM 10.8309 -84.3792 190° South  Level FlightAware Approximate
01:46PM 10.7108 -84.4013 192° South  Level FlightAware Approximate
01:47PM 10.5916 -84.4278 192° South  Level FlightAware Approximate
01:48PM 10.4729 -84.4568 194° South  Level FlightAware Approximate
01:49PM 10.3634 -84.4247 149° Southeast  Level FlightAware Approximate
01:50PM 10.2593 -84.3600 148° Southeast  Level FlightAware Approximate
01:51PM 10.1558 -84.2945 154° Southeast  Level FlightAware Approximate
01:52PM 10.0463 -84.2398 154° Southeast  Level FlightAware Approximate
01:53PM 10.0000 -84.2167 154° Southeast  Level FlightAware Approximate
01:54PM 9.9939 -84.2088 154° Southeast  Level Estimated
01:55PM 9.9939 -84.2088 154° Southeast  Level Estimated
01:56PM 9.9939 -84.2088 154° Southeast  Level Estimated
01:57PM 9.9939 -84.2088 154° Southeast  Level Estimated
01:58PM 9.9939 -84.2088 154° Southeast  Level Estimated
01:59PM 9.9939 -84.2088 154° Southeast  Level Estimated
02:00PM 9.9939 -84.2088 154° Southeast  Level Estimated
02:01PM 9.9939 -84.2088 154° Southeast  Level Estimated
02:02PM 9.9939 -84.2088 154° Southeast  Level Estimated
02:03PM 9.9939 -84.2088 154° Southeast  Level Estimated
02:04PM 9.9939 -84.2088 154° Southeast  Level Estimated